sensor_id;sensor_type;location;lat;lon;timestamp;temperature;humidity
12817;DHT22;6473;51.552;6.716;2023-08-30T00:01:37;15.40;99.90
12817;DHT22;6473;51.552;6.716;2023-08-30T00:04:03;15.30;99.90
12817;DHT22;6473;51.552;6.716;2023-08-30T00:06:30;15.40;99.90
12817;DHT22;6473;51.552;6.716;2023-08-30T00:08:58;15.20;99.90
12817;DHT22;6473;51.552;6.716;2023-08-30T00:11:25;16.50;99.90
12817;DHT22;6473;51.552;6.716;2023-08-30T00:13:51;14.90;99.90
12817;DHT22;6473;51.552;6.716;2023-08-30T00:16:20;14.90;99.90
12817;DHT22;6473;51.552;6.716;2023-08-30T00:18:46;14.80;99.90
12817;DHT22;6473;51.552;6.716;2023-08-30T00:21:13;16.10;99.90
12817;DHT22;6473;51.552;6.716;2023-08-30T00:23:42;14.60;99.90
12817;DHT22;6473;51.552;6.716;2023-08-30T00:26:08;14.60;99.90
12817;DHT22;6473;51.552;6.716;2023-08-30T00:28:35;15.30;99.90
12817;DHT22;6473;51.552;6.716;2023-08-30T00:31:02;14.50;99.90
12817;DHT22;6473;51.552;6.716;2023-08-30T00:33:30;14.50;99.90
12817;DHT22;6473;51.552;6.716;2023-08-30T00:35:58;14.50;99.90
12817;DHT22;6473;51.552;6.716;2023-08-30T00:38:26;14.60;99.90
12817;DHT22;6473;51.552;6.716;2023-08-30T00:40:53;14.60;99.90
12817;DHT22;6473;51.552;6.716;2023-08-30T00:43:20;14.70;99.90
12817;DHT22;6473;51.552;6.716;2023-08-30T00:45:47;14.80;99.90
12817;DHT22;6473;51.552;6.716;2023-08-30T00:48:15;16.00;99.90
12817;DHT22;6473;51.552;6.716;2023-08-30T00:50:46;14.70;99.90
12817;DHT22;6473;51.552;6.716;2023-08-30T00:53:13;14.80;99.90
12817;DHT22;6473;51.552;6.716;2023-08-30T00:55:42;14.50;99.90
12817;DHT22;6473;51.552;6.716;2023-08-30T00:58:09;14.60;99.90
12817;DHT22;6473;51.552;6.716;2023-08-30T01:00:37;14.60;99.90
12817;DHT22;6473;51.552;6.716;2023-08-30T01:03:05;15.60;99.90
12817;DHT22;6473;51.552;6.716;2023-08-30T01:05:33;16.00;99.90
12817;DHT22;6473;51.552;6.716;2023-08-30T01:08:01;14.40;99.90
12817;DHT22;6473;51.552;6.716;2023-08-30T01:10:38;14.30;99.90
12817;DHT22;6473;51.552;6.716;2023-08-30T01:13:10;14.20;99.90
12817;DHT22;6473;51.552;6.716;2023-08-30T01:15:40;15.00;99.90
12817;DHT22;6473;51.552;6.716;2023-08-30T01:18:07;14.40;99.90
12817;DHT22;6473;51.552;6.716;2023-08-30T01:20:37;15.30;99.90
12817;DHT22;6473;51.552;6.716;2023-08-30T01:23:07;15.30;99.90
12817;DHT22;6473;51.552;6.716;2023-08-30T01:25:47;14.40;99.90
12817;DHT22;6473;51.552;6.716;2023-08-30T01:28:19;14.50;99.90
12817;DHT22;6473;51.552;6.716;2023-08-30T01:30:48;14.40;99.90
12817;DHT22;6473;51.552;6.716;2023-08-30T01:33:16;14.30;99.90
12817;DHT22;6473;51.552;6.716;2023-08-30T01:35:45;14.30;99.90
12817;DHT22;6473;51.552;6.716;2023-08-30T01:38:13;16.40;99.90
12817;DHT22;6473;51.552;6.716;2023-08-30T01:40:42;14.40;99.90
12817;DHT22;6473;51.552;6.716;2023-08-30T01:43:10;16.10;99.90
12817;DHT22;6473;51.552;6.716;2023-08-30T01:45:40;14.30;99.90
12817;DHT22;6473;51.552;6.716;2023-08-30T01:48:10;14.30;99.90
12817;DHT22;6473;51.552;6.716;2023-08-30T01:50:40;14.20;99.90
12817;DHT22;6473;51.552;6.716;2023-08-30T01:53:10;14.20;99.90
12817;DHT22;6473;51.552;6.716;2023-08-30T01:55:37;14.20;99.90
12817;DHT22;6473;51.552;6.716;2023-08-30T01:58:05;14.40;99.90
12817;DHT22;6473;51.552;6.716;2023-08-30T02:00:33;14.30;99.90
12817;DHT22;6473;51.552;6.716;2023-08-30T02:03:08;14.40;99.90
12817;DHT22;6473;51.552;6.716;2023-08-30T02:05:39;14.30;99.90
12817;DHT22;6473;51.552;6.716;2023-08-30T02:08:13;14.40;99.90
12817;DHT22;6473;51.552;6.716;2023-08-30T02:10:45;14.30;99.90
12817;DHT22;6473;51.552;6.716;2023-08-30T02:13:18;14.30;99.90
12817;DHT22;6473;51.552;6.716;2023-08-30T02:15:47;14.20;99.90
12817;DHT22;6473;51.552;6.716;2023-08-30T02:18:16;14.30;99.90
12817;DHT22;6473;51.552;6.716;2023-08-30T02:20:43;14.30;99.90
12817;DHT22;6473;51.552;6.716;2023-08-30T02:23:10;14.40;99.90
12817;DHT22;6473;51.552;6.716;2023-08-30T02:25:37;14.30;99.90
12817;DHT22;6473;51.552;6.716;2023-08-30T02:28:04;14.20;99.90
12817;DHT22;6473;51.552;6.716;2023-08-30T02:30:32;14.20;99.90
12817;DHT22;6473;51.552;6.716;2023-08-30T02:32:59;14.30;99.90
12817;DHT22;6473;51.552;6.716;2023-08-30T02:35:27;14.20;99.90
12817;DHT22;6473;51.552;6.716;2023-08-30T02:37:54;16.30;99.90
12817;DHT22;6473;51.552;6.716;2023-08-30T02:40:21;14.20;99.90
12817;DHT22;6473;51.552;6.716;2023-08-30T02:42:48;14.20;99.90
12817;DHT22;6473;51.552;6.716;2023-08-30T02:45:15;15.80;99.90
12817;DHT22;6473;51.552;6.716;2023-08-30T02:47:44;14.10;99.90
12817;DHT22;6473;51.552;6.716;2023-08-30T02:50:11;14.70;99.90
12817;DHT22;6473;51.552;6.716;2023-08-30T02:52:39;14.10;99.90
12817;DHT22;6473;51.552;6.716;2023-08-30T02:55:06;14.20;99.90
12817;DHT22;6473;51.552;6.716;2023-08-30T02:57:33;14.30;99.90
12817;DHT22;6473;51.552;6.716;2023-08-30T03:00:00;15.80;99.90
12817;DHT22;6473;51.552;6.716;2023-08-30T03:02:31;15.50;99.90
12817;DHT22;6473;51.552;6.716;2023-08-30T03:04:58;14.30;99.90
12817;DHT22;6473;51.552;6.716;2023-08-30T03:07:28;14.40;99.90
12817;DHT22;6473;51.552;6.716;2023-08-30T03:09:56;14.50;99.90
12817;DHT22;6473;51.552;6.716;2023-08-30T03:12:23;16.90;99.90
12817;DHT22;6473;51.552;6.716;2023-08-30T03:14:51;14.40;99.90
12817;DHT22;6473;51.552;6.716;2023-08-30T03:17:18;14.40;99.90
12817;DHT22;6473;51.552;6.716;2023-08-30T03:19:45;14.30;99.90
12817;DHT22;6473;51.552;6.716;2023-08-30T03:22:12;14.20;99.90
12817;DHT22;6473;51.552;6.716;2023-08-30T03:24:39;14.00;99.90
12817;DHT22;6473;51.552;6.716;2023-08-30T03:27:08;14.00;99.90
12817;DHT22;6473;51.552;6.716;2023-08-30T03:29:35;14.00;99.90
12817;DHT22;6473;51.552;6.716;2023-08-30T03:32:02;15.70;99.90
12817;DHT22;6473;51.552;6.716;2023-08-30T03:34:28;14.30;99.90
12817;DHT22;6473;51.552;6.716;2023-08-30T03:36:55;16.20;99.90
12817;DHT22;6473;51.552;6.716;2023-08-30T03:39:22;14.50;99.90
12817;DHT22;6473;51.552;6.716;2023-08-30T03:41:50;14.60;99.90
12817;DHT22;6473;51.552;6.716;2023-08-30T03:44:18;14.40;99.90
12817;DHT22;6473;51.552;6.716;2023-08-30T03:46:45;15.60;99.90
12817;DHT22;6473;51.552;6.716;2023-08-30T03:49:12;14.40;99.90
12817;DHT22;6473;51.552;6.716;2023-08-30T03:51:39;14.40;99.90
12817;DHT22;6473;51.552;6.716;2023-08-30T03:54:06;14.40;99.90
12817;DHT22;6473;51.552;6.716;2023-08-30T03:56:34;14.50;99.90
12817;DHT22;6473;51.552;6.716;2023-08-30T03:59:01;14.30;99.90
12817;DHT22;6473;51.552;6.716;2023-08-30T04:01:30;14.30;99.90
12817;DHT22;6473;51.552;6.716;2023-08-30T04:03:57;16.20;99.90
12817;DHT22;6473;51.552;6.716;2023-08-30T04:06:26;14.30;99.90
12817;DHT22;6473;51.552;6.716;2023-08-30T04:08:53;14.40;99.90
12817;DHT22;6473;51.552;6.716;2023-08-30T04:11:19;14.20;99.90
12817;DHT22;6473;51.552;6.716;2023-08-30T04:13:46;15.40;99.90
12817;DHT22;6473;51.552;6.716;2023-08-30T04:16:13;14.20;99.90
12817;DHT22;6473;51.552;6.716;2023-08-30T04:18:41;14.00;99.90
12817;DHT22;6473;51.552;6.716;2023-08-30T04:21:08;14.00;99.90
12817;DHT22;6473;51.552;6.716;2023-08-30T04:23:35;14.00;99.90
12817;DHT22;6473;51.552;6.716;2023-08-30T04:26:02;13.90;99.90
12817;DHT22;6473;51.552;6.716;2023-08-30T04:28:29;14.30;99.90
12817;DHT22;6473;51.552;6.716;2023-08-30T04:30:56;14.50;99.90
12817;DHT22;6473;51.552;6.716;2023-08-30T04:33:23;15.30;99.90
12817;DHT22;6473;51.552;6.716;2023-08-30T04:35:52;13.90;99.90
12817;DHT22;6473;51.552;6.716;2023-08-30T04:38:19;16.20;99.90
12817;DHT22;6473;51.552;6.716;2023-08-30T04:40:47;14.00;99.90
12817;DHT22;6473;51.552;6.716;2023-08-30T04:43:15;14.70;99.90
12817;DHT22;6473;51.552;6.716;2023-08-30T04:45:42;13.90;99.90
12817;DHT22;6473;51.552;6.716;2023-08-30T04:48:10;14.20;99.90
12817;DHT22;6473;51.552;6.716;2023-08-30T04:50:36;14.00;99.90
12817;DHT22;6473;51.552;6.716;2023-08-30T04:53:05;13.90;99.90
12817;DHT22;6473;51.552;6.716;2023-08-30T04:55:32;15.70;99.90
12817;DHT22;6473;51.552;6.716;2023-08-30T04:57:59;14.00;99.90
12817;DHT22;6473;51.552;6.716;2023-08-30T05:00:31;14.00;99.90
12817;DHT22;6473;51.552;6.716;2023-08-30T05:02:58;14.00;99.90
12817;DHT22;6473;51.552;6.716;2023-08-30T05:05:26;13.90;99.90
12817;DHT22;6473;51.552;6.716;2023-08-30T05:07:55;13.80;99.90
12817;DHT22;6473;51.552;6.716;2023-08-30T05:10:23;13.70;99.90
12817;DHT22;6473;51.552;6.716;2023-08-30T05:12:50;13.60;99.90
12817;DHT22;6473;51.552;6.716;2023-08-30T05:15:17;14.00;99.90
12817;DHT22;6473;51.552;6.716;2023-08-30T05:17:46;13.60;99.90
12817;DHT22;6473;51.552;6.716;2023-08-30T05:20:12;13.60;99.90
12817;DHT22;6473;51.552;6.716;2023-08-30T05:22:39;13.60;99.90
12817;DHT22;6473;51.552;6.716;2023-08-30T05:25:07;13.60;99.90
12817;DHT22;6473;51.552;6.716;2023-08-30T05:27:35;13.60;99.90
12817;DHT22;6473;51.552;6.716;2023-08-30T05:30:02;13.60;99.90
12817;DHT22;6473;51.552;6.716;2023-08-30T05:32:29;13.70;99.90
12817;DHT22;6473;51.552;6.716;2023-08-30T05:35:29;13.70;99.90
12817;DHT22;6473;51.552;6.716;2023-08-30T05:38:14;13.60;99.90
12817;DHT22;6473;51.552;6.716;2023-08-30T05:41:01;13.70;99.90
12817;DHT22;6473;51.552;6.716;2023-08-30T05:43:31;13.70;99.90
12817;DHT22;6473;51.552;6.716;2023-08-30T05:45:58;13.90;99.90
12817;DHT22;6473;51.552;6.716;2023-08-30T05:48:28;13.80;99.90
12817;DHT22;6473;51.552;6.716;2023-08-30T05:50:55;14.00;99.90
12817;DHT22;6473;51.552;6.716;2023-08-30T05:53:22;14.30;99.90
12817;DHT22;6473;51.552;6.716;2023-08-30T05:55:49;14.20;99.90
12817;DHT22;6473;51.552;6.716;2023-08-30T05:58:16;14.30;99.90
12817;DHT22;6473;51.552;6.716;2023-08-30T06:00:46;14.40;99.90
12817;DHT22;6473;51.552;6.716;2023-08-30T06:03:13;14.50;99.90
12817;DHT22;6473;51.552;6.716;2023-08-30T06:05:40;16.60;99.90
12817;DHT22;6473;51.552;6.716;2023-08-30T06:08:08;14.60;99.90
12817;DHT22;6473;51.552;6.716;2023-08-30T06:10:36;14.60;99.90
12817;DHT22;6473;51.552;6.716;2023-08-30T06:13:04;14.70;99.90
12817;DHT22;6473;51.552;6.716;2023-08-30T06:15:31;14.80;99.90
12817;DHT22;6473;51.552;6.716;2023-08-30T06:18:00;15.10;99.90
12817;DHT22;6473;51.552;6.716;2023-08-30T06:20:27;15.10;99.90
12817;DHT22;6473;51.552;6.716;2023-08-30T06:22:54;15.20;99.90
12817;DHT22;6473;51.552;6.716;2023-08-30T06:25:20;15.30;99.90
12817;DHT22;6473;51.552;6.716;2023-08-30T06:27:56;15.30;99.90
12817;DHT22;6473;51.552;6.716;2023-08-30T06:30:23;16.60;99.90
12817;DHT22;6473;51.552;6.716;2023-08-30T06:32:49;15.80;99.90
12817;DHT22;6473;51.552;6.716;2023-08-30T06:35:18;16.00;99.90
12817;DHT22;6473;51.552;6.716;2023-08-30T06:37:45;16.00;99.90
12817;DHT22;6473;51.552;6.716;2023-08-30T06:40:11;16.40;99.90
12817;DHT22;6473;51.552;6.716;2023-08-30T06:42:38;16.70;99.90
12817;DHT22;6473;51.552;6.716;2023-08-30T06:45:06;16.80;99.90
12817;DHT22;6473;51.552;6.716;2023-08-30T06:47:33;16.50;99.90
12817;DHT22;6473;51.552;6.716;2023-08-30T06:50:00;16.70;99.90
12817;DHT22;6473;51.552;6.716;2023-08-30T06:52:30;16.30;99.90
12817;DHT22;6473;51.552;6.716;2023-08-30T06:54:57;16.70;99.90
12817;DHT22;6473;51.552;6.716;2023-08-30T06:57:24;16.70;99.90
12817;DHT22;6473;51.552;6.716;2023-08-30T06:59:51;16.80;99.90
12817;DHT22;6473;51.552;6.716;2023-08-30T07:02:18;17.00;99.90
12817;DHT22;6473;51.552;6.716;2023-08-30T07:04:45;17.70;99.90
12817;DHT22;6473;51.552;6.716;2023-08-30T07:07:12;17.30;99.90
12817;DHT22;6473;51.552;6.716;2023-08-30T07:09:41;17.40;99.90
12817;DHT22;6473;51.552;6.716;2023-08-30T07:12:08;17.60;99.90
12817;DHT22;6473;51.552;6.716;2023-08-30T07:14:35;18.10;99.60
12817;DHT22;6473;51.552;6.716;2023-08-30T07:17:02;18.10;99.10
12817;DHT22;6473;51.552;6.716;2023-08-30T07:19:29;17.90;99.90
12817;DHT22;6473;51.552;6.716;2023-08-30T07:21:56;18.50;97.10
12817;DHT22;6473;51.552;6.716;2023-08-30T07:24:23;18.60;95.60
12817;DHT22;6473;51.552;6.716;2023-08-30T07:26:51;18.80;92.50
12817;DHT22;6473;51.552;6.716;2023-08-30T07:29:18;19.00;93.00
12817;DHT22;6473;51.552;6.716;2023-08-30T07:31:44;19.30;93.70
12817;DHT22;6473;51.552;6.716;2023-08-30T07:34:11;19.00;92.60
12817;DHT22;6473;51.552;6.716;2023-08-30T07:36:38;19.30;85.60
12817;DHT22;6473;51.552;6.716;2023-08-30T07:39:05;19.00;78.00
12817;DHT22;6473;51.552;6.716;2023-08-30T07:41:34;19.00;81.00
12817;DHT22;6473;51.552;6.716;2023-08-30T07:44:02;19.40;78.70
12817;DHT22;6473;51.552;6.716;2023-08-30T07:46:29;19.60;71.50
12817;DHT22;6473;51.552;6.716;2023-08-30T07:48:56;19.50;68.60
12817;DHT22;6473;51.552;6.716;2023-08-30T07:51:22;19.30;66.80
12817;DHT22;6473;51.552;6.716;2023-08-30T07:53:49;19.90;64.40
12817;DHT22;6473;51.552;6.716;2023-08-30T07:56:17;20.20;53.70
12817;DHT22;6473;51.552;6.716;2023-08-30T07:58:44;20.00;51.40
12817;DHT22;6473;51.552;6.716;2023-08-30T08:01:12;21.20;48.50
12817;DHT22;6473;51.552;6.716;2023-08-30T08:03:39;20.10;37.30
12817;DHT22;6473;51.552;6.716;2023-08-30T08:06:06;20.00;39.70
12817;DHT22;6473;51.552;6.716;2023-08-30T08:08:33;19.80;31.30
12817;DHT22;6473;51.552;6.716;2023-08-30T08:11:00;21.10;35.50
12817;DHT22;6473;51.552;6.716;2023-08-30T08:13:27;19.30;43.20
12817;DHT22;6473;51.552;6.716;2023-08-30T08:15:56;19.50;45.40
12817;DHT22;6473;51.552;6.716;2023-08-30T08:18:24;19.70;44.80
12817;DHT22;6473;51.552;6.716;2023-08-30T08:20:51;19.80;29.80
12817;DHT22;6473;51.552;6.716;2023-08-30T08:23:18;20.20;20.00
12817;DHT22;6473;51.552;6.716;2023-08-30T08:25:45;20.30;17.70
12817;DHT22;6473;51.552;6.716;2023-08-30T08:28:11;20.20;18.60
12817;DHT22;6473;51.552;6.716;2023-08-30T08:30:38;19.70;25.00
12817;DHT22;6473;51.552;6.716;2023-08-30T08:33:05;19.20;26.00
12817;DHT22;6473;51.552;6.716;2023-08-30T08:35:33;19.10;36.10
12817;DHT22;6473;51.552;6.716;2023-08-30T08:38:00;19.00;38.50
12817;DHT22;6473;51.552;6.716;2023-08-30T08:40:27;18.90;48.30
12817;DHT22;6473;51.552;6.716;2023-08-30T08:42:55;19.00;43.10
12817;DHT22;6473;51.552;6.716;2023-08-30T08:45:23;18.80;46.10
12817;DHT22;6473;51.552;6.716;2023-08-30T08:47:50;19.30;49.20
12817;DHT22;6473;51.552;6.716;2023-08-30T08:50:18;19.90;50.80
12817;DHT22;6473;51.552;6.716;2023-08-30T08:52:46;18.80;61.30
12817;DHT22;6473;51.552;6.716;2023-08-30T08:55:14;19.10;72.50
12817;DHT22;6473;51.552;6.716;2023-08-30T08:57:42;17.70;85.80
12817;DHT22;6473;51.552;6.716;2023-08-30T09:00:11;17.50;94.10
12817;DHT22;6473;51.552;6.716;2023-08-30T09:02:39;17.40;99.80
12817;DHT22;6473;51.552;6.716;2023-08-30T09:05:07;17.20;99.90
12817;DHT22;6473;51.552;6.716;2023-08-30T09:07:36;17.20;99.90
12817;DHT22;6473;51.552;6.716;2023-08-30T09:10:05;16.90;99.90
12817;DHT22;6473;51.552;6.716;2023-08-30T09:12:32;16.60;99.90
12817;DHT22;6473;51.552;6.716;2023-08-30T09:14:59;17.70;99.90
12817;DHT22;6473;51.552;6.716;2023-08-30T09:17:36;16.60;99.90
12817;DHT22;6473;51.552;6.716;2023-08-30T09:20:09;16.50;99.90
12817;DHT22;6473;51.552;6.716;2023-08-30T09:22:37;16.50;99.90
12817;DHT22;6473;51.552;6.716;2023-08-30T09:25:05;16.20;99.90
12817;DHT22;6473;51.552;6.716;2023-08-30T09:27:32;16.00;99.90
12817;DHT22;6473;51.552;6.716;2023-08-30T09:30:00;16.00;99.90
12817;DHT22;6473;51.552;6.716;2023-08-30T09:32:27;15.90;99.90
12817;DHT22;6473;51.552;6.716;2023-08-30T09:34:53;15.80;99.90
12817;DHT22;6473;51.552;6.716;2023-08-30T09:37:21;15.60;99.90
12817;DHT22;6473;51.552;6.716;2023-08-30T09:39:51;15.50;99.90
12817;DHT22;6473;51.552;6.716;2023-08-30T09:42:19;15.50;99.90
12817;DHT22;6473;51.552;6.716;2023-08-30T09:44:47;15.50;99.90
12817;DHT22;6473;51.552;6.716;2023-08-30T09:47:15;15.40;99.90
12817;DHT22;6473;51.552;6.716;2023-08-30T09:49:44;15.30;99.90
12817;DHT22;6473;51.552;6.716;2023-08-30T09:52:14;15.10;99.90
12817;DHT22;6473;51.552;6.716;2023-08-30T09:54:42;15.10;99.90
12817;DHT22;6473;51.552;6.716;2023-08-30T09:57:10;16.30;99.90
12817;DHT22;6473;51.552;6.716;2023-08-30T09:59:39;15.10;99.90
12817;DHT22;6473;51.552;6.716;2023-08-30T10:02:08;15.10;99.90
12817;DHT22;6473;51.552;6.716;2023-08-30T10:04:38;15.20;99.90
12817;DHT22;6473;51.552;6.716;2023-08-30T10:07:06;16.20;99.90
12817;DHT22;6473;51.552;6.716;2023-08-30T10:09:33;15.10;99.90
12817;DHT22;6473;51.552;6.716;2023-08-30T10:12:01;15.20;99.90
12817;DHT22;6473;51.552;6.716;2023-08-30T10:14:29;15.20;99.90
12817;DHT22;6473;51.552;6.716;2023-08-30T10:17:02;15.10;99.90
12817;DHT22;6473;51.552;6.716;2023-08-30T10:19:30;15.20;99.90
12817;DHT22;6473;51.552;6.716;2023-08-30T10:22:01;15.00;99.90
12817;DHT22;6473;51.552;6.716;2023-08-30T10:24:32;15.10;99.90
12817;DHT22;6473;51.552;6.716;2023-08-30T10:27:02;15.00;99.90
12817;DHT22;6473;51.552;6.716;2023-08-30T10:29:32;15.10;99.90
12817;DHT22;6473;51.552;6.716;2023-08-30T10:32:03;15.00;99.90
12817;DHT22;6473;51.552;6.716;2023-08-30T10:34:32;15.10;99.90
12817;DHT22;6473;51.552;6.716;2023-08-30T10:37:00;15.10;99.90
12817;DHT22;6473;51.552;6.716;2023-08-30T10:39:33;15.20;99.90
12817;DHT22;6473;51.552;6.716;2023-08-30T10:42:08;17.10;99.90
12817;DHT22;6473;51.552;6.716;2023-08-30T10:44:46;15.10;99.90
12817;DHT22;6473;51.552;6.716;2023-08-30T10:47:19;15.00;99.90
12817;DHT22;6473;51.552;6.716;2023-08-30T10:49:49;14.90;99.90
12817;DHT22;6473;51.552;6.716;2023-08-30T10:52:16;14.90;99.90
12817;DHT22;6473;51.552;6.716;2023-08-30T10:54:43;14.80;99.90
12817;DHT22;6473;51.552;6.716;2023-08-30T10:57:14;14.90;99.90
12817;DHT22;6473;51.552;6.716;2023-08-30T11:00:04;14.90;99.90
12817;DHT22;6473;51.552;6.716;2023-08-30T11:02:34;16.30;99.90
12817;DHT22;6473;51.552;6.716;2023-08-30T11:05:01;14.80;99.90
12817;DHT22;6473;51.552;6.716;2023-08-30T11:07:29;14.70;99.90
12817;DHT22;6473;51.552;6.716;2023-08-30T11:09:57;14.80;99.90
12817;DHT22;6473;51.552;6.716;2023-08-30T11:12:25;14.70;99.90
12817;DHT22;6473;51.552;6.716;2023-08-30T11:14:52;16.30;99.90
12817;DHT22;6473;51.552;6.716;2023-08-30T11:17:20;16.40;99.90
12817;DHT22;6473;51.552;6.716;2023-08-30T11:19:49;14.70;99.90
12817;DHT22;6473;51.552;6.716;2023-08-30T11:22:17;14.70;99.90
12817;DHT22;6473;51.552;6.716;2023-08-30T11:24:47;14.60;99.90
12817;DHT22;6473;51.552;6.716;2023-08-30T11:27:16;14.60;99.90
12817;DHT22;6473;51.552;6.716;2023-08-30T11:29:43;14.70;99.90
12817;DHT22;6473;51.552;6.716;2023-08-30T11:32:10;14.70;99.90
12817;DHT22;6473;51.552;6.716;2023-08-30T11:34:37;14.70;99.90
12817;DHT22;6473;51.552;6.716;2023-08-30T11:37:05;14.70;99.90
12817;DHT22;6473;51.552;6.716;2023-08-30T11:39:34;14.70;99.90
12817;DHT22;6473;51.552;6.716;2023-08-30T11:42:03;16.20;99.90
12817;DHT22;6473;51.552;6.716;2023-08-30T11:44:32;14.80;99.90
12817;DHT22;6473;51.552;6.716;2023-08-30T11:46:59;14.90;99.90
12817;DHT22;6473;51.552;6.716;2023-08-30T11:49:26;16.50;99.90
12817;DHT22;6473;51.552;6.716;2023-08-30T11:51:54;14.90;99.90
12817;DHT22;6473;51.552;6.716;2023-08-30T11:54:23;14.90;99.90
12817;DHT22;6473;51.552;6.716;2023-08-30T11:56:51;14.90;99.90
12817;DHT22;6473;51.552;6.716;2023-08-30T11:59:18;15.00;99.90
12817;DHT22;6473;51.552;6.716;2023-08-30T12:01:46;14.90;99.90
12817;DHT22;6473;51.552;6.716;2023-08-30T12:04:13;17.00;99.90
12817;DHT22;6473;51.552;6.716;2023-08-30T12:06:40;14.90;99.90
12817;DHT22;6473;51.552;6.716;2023-08-30T12:09:11;15.00;99.90
12817;DHT22;6473;51.552;6.716;2023-08-30T12:11:40;15.20;99.90
12817;DHT22;6473;51.552;6.716;2023-08-30T12:14:06;16.50;99.90
12817;DHT22;6473;51.552;6.716;2023-08-30T12:16:33;15.30;99.90
12817;DHT22;6473;51.552;6.716;2023-08-30T12:19:09;15.30;99.90
12817;DHT22;6473;51.552;6.716;2023-08-30T12:21:41;15.30;99.90
12817;DHT22;6473;51.552;6.716;2023-08-30T12:24:08;15.40;99.90
12817;DHT22;6473;51.552;6.716;2023-08-30T12:26:35;15.30;99.90
12817;DHT22;6473;51.552;6.716;2023-08-30T12:29:05;15.30;99.90
12817;DHT22;6473;51.552;6.716;2023-08-30T12:31:32;15.30;99.90
12817;DHT22;6473;51.552;6.716;2023-08-30T12:33:59;15.30;99.90
12817;DHT22;6473;51.552;6.716;2023-08-30T12:36:26;15.40;99.90
12817;DHT22;6473;51.552;6.716;2023-08-30T12:38:53;18.00;99.90
12817;DHT22;6473;51.552;6.716;2023-08-30T12:41:20;15.40;99.90
12817;DHT22;6473;51.552;6.716;2023-08-30T12:43:49;15.20;99.90
12817;DHT22;6473;51.552;6.716;2023-08-30T12:46:18;15.30;99.90
12817;DHT22;6473;51.552;6.716;2023-08-30T12:48:44;15.30;99.90
12817;DHT22;6473;51.552;6.716;2023-08-30T12:51:11;15.40;99.90
12817;DHT22;6473;51.552;6.716;2023-08-30T12:53:40;15.30;99.90
12817;DHT22;6473;51.552;6.716;2023-08-30T12:56:07;15.30;99.90
12817;DHT22;6473;51.552;6.716;2023-08-30T12:58:33;15.50;99.90
12817;DHT22;6473;51.552;6.716;2023-08-30T13:01:00;15.60;99.90
12817;DHT22;6473;51.552;6.716;2023-08-30T13:03:29;16.60;99.90
12817;DHT22;6473;51.552;6.716;2023-08-30T13:05:56;15.70;99.90
12817;DHT22;6473;51.552;6.716;2023-08-30T13:08:24;15.70;99.90
12817;DHT22;6473;51.552;6.716;2023-08-30T13:10:51;15.60;99.90
12817;DHT22;6473;51.552;6.716;2023-08-30T13:13:17;16.50;99.90
12817;DHT22;6473;51.552;6.716;2023-08-30T13:15:46;15.40;99.90
12817;DHT22;6473;51.552;6.716;2023-08-30T13:18:13;15.30;99.90
12817;DHT22;6473;51.552;6.716;2023-08-30T13:20:42;15.20;99.90
12817;DHT22;6473;51.552;6.716;2023-08-30T13:23:09;15.30;99.90
12817;DHT22;6473;51.552;6.716;2023-08-30T13:25:38;16.80;99.90
12817;DHT22;6473;51.552;6.716;2023-08-30T13:28:05;16.40;99.90
12817;DHT22;6473;51.552;6.716;2023-08-30T13:30:32;15.40;99.90
12817;DHT22;6473;51.552;6.716;2023-08-30T13:32:59;15.30;99.90
12817;DHT22;6473;51.552;6.716;2023-08-30T13:35:26;15.40;99.90
12817;DHT22;6473;51.552;6.716;2023-08-30T13:37:54;15.40;99.90
12817;DHT22;6473;51.552;6.716;2023-08-30T13:40:21;15.40;99.90
12817;DHT22;6473;51.552;6.716;2023-08-30T13:42:48;15.30;99.90
12817;DHT22;6473;51.552;6.716;2023-08-30T13:45:15;15.30;99.90
12817;DHT22;6473;51.552;6.716;2023-08-30T13:47:42;15.20;99.90
12817;DHT22;6473;51.552;6.716;2023-08-30T13:50:10;15.20;99.90
12817;DHT22;6473;51.552;6.716;2023-08-30T13:52:37;15.30;99.90
12817;DHT22;6473;51.552;6.716;2023-08-30T13:55:06;16.50;99.90
12817;DHT22;6473;51.552;6.716;2023-08-30T13:57:33;15.10;99.90
12817;DHT22;6473;51.552;6.716;2023-08-30T13:59:59;15.20;99.90
12817;DHT22;6473;51.552;6.716;2023-08-30T14:02:30;16.90;99.90
12817;DHT22;6473;51.552;6.716;2023-08-30T14:04:58;15.70;99.90
12817;DHT22;6473;51.552;6.716;2023-08-30T14:07:24;15.80;99.90
12817;DHT22;6473;51.552;6.716;2023-08-30T14:09:51;15.20;99.90
12817;DHT22;6473;51.552;6.716;2023-08-30T14:12:20;15.10;99.90
12817;DHT22;6473;51.552;6.716;2023-08-30T14:14:47;15.20;99.90
12817;DHT22;6473;51.552;6.716;2023-08-30T14:17:13;15.20;99.90
12817;DHT22;6473;51.552;6.716;2023-08-30T14:19:40;15.20;99.90
12817;DHT22;6473;51.552;6.716;2023-08-30T14:22:07;15.10;99.90
12817;DHT22;6473;51.552;6.716;2023-08-30T14:24:34;15.30;99.90
12817;DHT22;6473;51.552;6.716;2023-08-30T14:27:01;15.20;99.90
12817;DHT22;6473;51.552;6.716;2023-08-30T14:29:29;15.20;99.90
12817;DHT22;6473;51.552;6.716;2023-08-30T14:31:56;15.10;99.90
12817;DHT22;6473;51.552;6.716;2023-08-30T14:34:23;15.30;99.90
12817;DHT22;6473;51.552;6.716;2023-08-30T14:36:50;15.20;99.90
12817;DHT22;6473;51.552;6.716;2023-08-30T14:39:16;15.30;99.90
12817;DHT22;6473;51.552;6.716;2023-08-30T14:41:44;15.30;99.90
12817;DHT22;6473;51.552;6.716;2023-08-30T14:44:10;15.30;99.90
12817;DHT22;6473;51.552;6.716;2023-08-30T14:46:39;15.30;99.90
12817;DHT22;6473;51.552;6.716;2023-08-30T14:49:05;15.30;99.90
12817;DHT22;6473;51.552;6.716;2023-08-30T14:51:32;15.40;99.90
12817;DHT22;6473;51.552;6.716;2023-08-30T14:53:59;16.60;99.90
12817;DHT22;6473;51.552;6.716;2023-08-30T14:56:26;15.20;99.90
12817;DHT22;6473;51.552;6.716;2023-08-30T14:58:53;15.10;99.90
12817;DHT22;6473;51.552;6.716;2023-08-30T15:01:19;15.10;99.90
12817;DHT22;6473;51.552;6.716;2023-08-30T15:03:48;15.10;99.90
12817;DHT22;6473;51.552;6.716;2023-08-30T15:06:14;15.20;99.90
12817;DHT22;6473;51.552;6.716;2023-08-30T15:08:41;15.60;99.90
12817;DHT22;6473;51.552;6.716;2023-08-30T15:11:08;15.20;99.90
12817;DHT22;6473;51.552;6.716;2023-08-30T15:13:35;15.20;99.90
12817;DHT22;6473;51.552;6.716;2023-08-30T15:16:03;15.20;99.90
12817;DHT22;6473;51.552;6.716;2023-08-30T15:18:30;15.30;99.90
12817;DHT22;6473;51.552;6.716;2023-08-30T15:20:59;15.20;99.90
12817;DHT22;6473;51.552;6.716;2023-08-30T15:23:27;15.20;99.90
12817;DHT22;6473;51.552;6.716;2023-08-30T15:25:54;15.50;99.90
12817;DHT22;6473;51.552;6.716;2023-08-30T15:28:21;15.20;99.90
12817;DHT22;6473;51.552;6.716;2023-08-30T15:30:48;15.10;99.90
12817;DHT22;6473;51.552;6.716;2023-08-30T15:33:17;15.10;99.90
12817;DHT22;6473;51.552;6.716;2023-08-30T15:35:44;15.10;99.90
12817;DHT22;6473;51.552;6.716;2023-08-30T15:38:12;15.20;99.90
12817;DHT22;6473;51.552;6.716;2023-08-30T15:40:39;15.20;99.90
12817;DHT22;6473;51.552;6.716;2023-08-30T15:43:06;15.20;99.90
12817;DHT22;6473;51.552;6.716;2023-08-30T15:45:33;15.30;99.90
12817;DHT22;6473;51.552;6.716;2023-08-30T15:48:00;15.40;99.90
12817;DHT22;6473;51.552;6.716;2023-08-30T15:50:27;15.30;99.90